メインページ
METAR-TAF:

METAR-TAF

空港 :

パゴパゴ国際空港

パゴパゴ, 合衆国領有小離島

緯度: 14-20S, 経度: 170-43W, 海抜: 3m

現時点の気象観測

当レポートは23分前の12:50(UTC)に作成
の風 11kt
気温 29°C
湿度 84%
気圧 1009 hPa
視程: 16.1km
高度1800ftの雲は散在している
高度23000ftの千切れ雲あり

METAR: NSTU 201250Z 10011KT 10SM SCT018 BKN230 29/26 A2980 RMK SLP091 T02870257

時間: 02:13 (13:13 UTC)

予報

当レポートは1時間53分前の11:20(UTC)に作成
予報は20日の 12時(UTC)から 21日の 12時(UTC)まで有効
の風 9kt
視程: 10km
高度1800ftの雲は散在している
高度4000ftの雲は散在している
高度20000ftの千切れ雲あり
近辺でにわか雨

TAF: NSTU 201120Z 2012/2112 10009KT P6SM VCSH SCT018 SCT040 BKN200

4,000以上の空港の気象観測と天気予報(METAR報とTAF報)

利用可能な観測所は地図上に黄色い丸と赤い丸で示す。

丸の上にカーソルを重ねると観測所名を参照できる。

次にクリックすると気象観測と天気予報を参照できる。

マップの切り替え:黒色「×」印の緑ボタンをクリックして拡大、「-」印の緑ボタンをクリックして縮小、緑色の三角印をクリックして隣りの地図に切り替え


METAR-TAF: